createdAt,value
2019-05-10T00:01:12.947Z,94235.27
2019-05-10T00:04:01.492Z,94243.38
2019-05-10T00:06:50.479Z,94247.25
2019-05-10T00:09:20.575Z,94256.45
2019-05-10T00:12:02.749Z,94243.22
2019-05-10T00:14:46.318Z,94236.95
2019-05-10T00:17:21.295Z,94244.10
2019-05-10T00:19:52.734Z,94239.97
2019-05-10T00:22:23.946Z,94236.95
2019-05-10T00:25:04.004Z,94239.52
2019-05-10T00:27:27.937Z,94229.78
2019-05-10T00:29:59.116Z,94230.16
2019-05-10T00:32:30.234Z,94231.47
2019-05-10T00:35:01.500Z,94235.39
2019-05-10T00:37:32.649Z,94234.92
2019-05-10T00:40:04.389Z,94239.28
2019-05-10T00:42:35.506Z,94241.20
2019-05-10T00:45:08.003Z,94239.56
2019-05-10T00:47:39.204Z,94238.30
2019-05-10T00:50:10.795Z,94230.52
2019-05-10T00:52:41.918Z,94238.15
2019-05-10T00:55:18.789Z,94236.17
2019-05-10T00:57:48.264Z,94233.67
2019-05-10T01:00:20.389Z,94231.99
2019-05-10T01:02:51.722Z,94230.67
2019-05-10T01:05:23.212Z,94226.16
2019-05-10T01:07:54.496Z,94236.41
2019-05-10T01:10:26.067Z,94234.54
2019-05-10T01:12:57.467Z,94241.49
2019-05-10T01:15:28.761Z,94234.66
2019-05-10T01:17:59.842Z,94241.80
2019-05-10T01:20:31.035Z,94237.27
2019-05-10T01:23:02.545Z,94247.57
2019-05-10T01:25:35.811Z,94244.78
2019-05-10T01:28:07.124Z,94249.38
2019-05-10T01:30:38.653Z,94246.91
2019-05-10T01:33:09.821Z,94247.57
2019-05-10T01:35:41.279Z,94260.26
2019-05-10T01:38:13.628Z,94253.41
2019-05-10T01:40:44.896Z,94252.09
2019-05-10T01:43:16.113Z,94248.69
2019-05-10T01:45:47.324Z,94249.38
2019-05-10T01:48:18.521Z,94250.33
2019-05-10T01:50:49.654Z,94248.33
2019-05-10T01:53:20.805Z,94252.61
2019-05-10T01:55:52.916Z,94260.63
2019-05-10T01:58:25.265Z,94256.39
2019-05-10T02:00:56.891Z,94260.42
2019-05-10T02:03:28.147Z,94261.67
2019-05-10T02:05:59.461Z,94256.14
2019-05-10T02:08:30.752Z,94260.85
2019-05-10T02:11:02.282Z,94266.24
2019-05-10T02:13:33.817Z,94265.56
2019-05-10T02:16:05.214Z,94260.28
2019-05-10T02:18:36.654Z,94265.55
2019-05-10T02:21:08.092Z,94261.96
2019-05-10T02:23:39.417Z,94267.66
2019-05-10T02:26:11.789Z,94270.77
2019-05-10T02:28:43.048Z,94264.03
2019-05-10T02:31:14.471Z,94264.82
2019-05-10T02:33:45.881Z,94259.41
2019-05-10T02:36:17.272Z,94266.81
2019-05-10T02:38:48.616Z,94267.14
2019-05-10T02:41:20.244Z,94271.66
2019-05-10T02:43:51.306Z,94268.05
2019-05-10T02:46:22.865Z,94269.06
2019-05-10T02:48:54.349Z,94269.06
2019-05-10T02:51:25.986Z,94270.93
2019-05-10T02:53:57.459Z,94273.85
2019-05-10T02:56:31.845Z,94280.71
2019-05-10T02:59:04.144Z,94282.15
2019-05-10T03:01:37.421Z,94281.67
2019-05-10T03:04:10.520Z,94282.84
2019-05-10T03:06:44.258Z,94285.63
2019-05-10T03:09:15.778Z,94286.62
2019-05-10T03:11:49.372Z,94284.69
2019-05-10T03:14:20.861Z,94281.90
2019-05-10T03:16:53.039Z,94288.37
2019-05-10T03:19:24.290Z,94287.73
2019-05-10T03:22:06.798Z,94282.33
2019-05-10T03:24:38.012Z,94282.16
2019-05-10T03:27:09.194Z,94277.50
2019-05-10T03:29:40.696Z,94284.95
2019-05-10T03:32:11.993Z,94279.96
2019-05-10T03:34:43.219Z,94269.48
2019-05-10T03:37:14.727Z,94284.77
2019-05-10T03:39:46.226Z,94283.14
2019-05-10T03:42:17.846Z,94287.36
2019-05-10T03:44:49.275Z,94279.04
2019-05-10T03:47:20.834Z,94284.55
2019-05-10T03:49:52.151Z,94290.09
2019-05-10T03:52:23.317Z,94288.93
2019-05-10T03:54:54.465Z,94295.31
2019-05-10T03:57:25.641Z,94298.09
2019-05-10T03:59:56.769Z,94302.98
2019-05-10T04:02:28.427Z,94305.85
2019-05-10T04:04:59.969Z,94315.59
2019-05-10T04:07:31.408Z,94326.64
2019-05-10T04:10:02.677Z,94325.63
2019-05-10T04:12:34.023Z,94324.95
2019-05-10T04:15:06.140Z,94325.38
2019-05-10T04:17:37.297Z,94318.95
2019-05-10T04:20:09.263Z,94321.84
2019-05-10T04:22:40.476Z,94332.01
2019-05-10T04:25:11.476Z,94332.47
2019-05-10T04:27:42.267Z,94338.04
2019-05-10T04:30:13.740Z,94348.98
2019-05-10T04:32:44.510Z,94369.36
2019-05-10T04:35:15.837Z,94397.22
2019-05-10T04:37:47.006Z,94398.73
2019-05-10T04:40:18.565Z,94407.95
2019-05-10T04:42:50.788Z,94405.23
2019-05-10T04:45:22.047Z,94409.07
2019-05-10T04:47:53.296Z,94407.83
2019-05-10T04:50:24.469Z,94402.12
2019-05-10T04:52:55.610Z,94408.54
2019-05-10T04:55:26.832Z,94405.13
2019-05-10T04:57:57.995Z,94397.48
2019-05-10T05:00:29.331Z,94406.77
2019-05-10T05:03:00.458Z,94401.06
2019-05-10T05:05:31.694Z,94405.47
2019-05-10T05:08:06.279Z,94418.02
2019-05-10T05:10:36.821Z,94421.28
2019-05-10T05:13:08.214Z,94423.39
2019-05-10T05:15:39.924Z,94421.26
2019-05-10T05:18:11.407Z,94419.47
2019-05-10T05:20:43.131Z,94423.19
2019-05-10T05:23:14.297Z,94418.30
2019-05-10T05:25:45.806Z,94422.40
2019-05-10T05:28:18.370Z,94424.14
2019-05-10T05:30:50.821Z,94424.14
2019-05-10T05:33:22.173Z,94419.50
2019-05-10T05:35:53.300Z,94424.99
2019-05-10T05:38:24.221Z,94422.20
2019-05-10T05:40:55.232Z,94423.33
2019-05-10T05:43:26.250Z,94419.53
2019-05-10T05:45:57.087Z,94419.05
2019-05-10T05:48:39.778Z,94431.36
2019-05-10T05:51:01.014Z,94425.17
2019-05-10T05:53:36.021Z,94432.02
2019-05-10T05:56:12.531Z,94434.78
2019-05-10T05:58:44.282Z,94435.16
2019-05-10T06:01:10.868Z,94437.64
2019-05-10T06:03:42.055Z,94439.28
2019-05-10T06:06:21.785Z,94445.06
2019-05-10T06:08:46.253Z,94459.74
2019-05-10T06:11:17.372Z,94453.18
2019-05-10T06:13:48.631Z,94452.13
2019-05-10T06:16:22.242Z,94452.45
2019-05-10T06:18:52.847Z,94460.34
2019-05-10T06:21:26.562Z,94464.62
2019-05-10T06:23:59.413Z,94452.85
2019-05-10T06:26:29.642Z,94472.33
2019-05-10T06:29:04.305Z,94472.83
2019-05-10T06:31:33.952Z,94475.02
2019-05-10T06:34:05.249Z,94465.85
2019-05-10T06:36:36.507Z,94477.82
2019-05-10T06:39:08.474Z,94475.73
2019-05-10T06:41:39.766Z,94482.69
2019-05-10T06:44:11.058Z,94483.03
2019-05-10T06:46:42.239Z,94487.98
2019-05-10T06:49:13.165Z,94483.67
2019-05-10T06:51:49.102Z,94482.89
2019-05-10T06:54:17.107Z,94485.42
2019-05-10T06:56:48.200Z,94478.34
2019-05-10T06:59:24.272Z,94482.96
2019-05-10T07:01:52.275Z,94484.84
2019-05-10T07:04:23.481Z,94489.25
2019-05-10T07:06:54.552Z,94492.12
2019-05-10T07:09:25.808Z,94496.83
2019-05-10T07:11:57.166Z,94495.48
2019-05-10T07:14:28.495Z,94494.78
2019-05-10T07:17:02.612Z,94489.56
2019-05-10T07:19:34.852Z,94493.08
2019-05-10T07:22:06.422Z,94498.77
2019-05-10T07:24:37.721Z,94489.16
2019-05-10T07:27:08.950Z,94493.55
2019-05-10T07:29:43.405Z,94496.36
2019-05-10T07:32:16.306Z,94503.66
2019-05-10T07:34:48.157Z,94497.66
2019-05-10T07:37:19.170Z,94505.89
2019-05-10T07:39:50.499Z,94508.42
2019-05-10T07:42:21.494Z,94514.54
2019-05-10T07:44:52.556Z,94517.53
2019-05-10T07:47:29.884Z,94512.45
2019-05-10T07:49:56.811Z,94520.13
2019-05-10T07:52:27.958Z,94519.06
2019-05-10T07:54:59.095Z,94515.42
2019-05-10T07:57:30.414Z,94522.11
2019-05-10T08:00:03.607Z,94528.16
2019-05-10T08:02:34.406Z,94528.06
2019-05-10T08:05:10.774Z,94534.08
2019-05-10T08:07:39.095Z,94540.73
2019-05-10T08:10:10.487Z,94545.16
2019-05-10T08:12:45.633Z,94547.40
2019-05-10T08:15:15.188Z,94541.27
2019-05-10T08:17:50.650Z,94540.81
2019-05-10T08:20:30.680Z,94543.88
2019-05-10T08:22:52.679Z,94544.13
2019-05-10T08:25:29.194Z,94545.44
2019-05-10T08:27:56.654Z,94550.73
2019-05-10T08:30:52.229Z,94552.14
2019-05-10T08:33:17.715Z,94550.23
2019-05-10T08:35:52.525Z,94545.68
2019-05-10T08:38:21.991Z,94554.26
2019-05-10T08:40:53.082Z,94547.27
2019-05-10T08:43:24.547Z,94558.67
2019-05-10T08:45:58.022Z,94551.59
2019-05-10T08:48:29.062Z,94551.59
2019-05-10T08:51:04.037Z,94557.63
2019-05-10T08:53:33.041Z,94550.34
2019-05-10T08:56:07.577Z,94551.39
2019-05-10T08:58:37.469Z,94561.58
2019-05-10T09:01:19.026Z,94562.47
2019-05-10T09:03:47.208Z,94562.80
2019-05-10T09:06:16.955Z,94568.90
2019-05-10T09:08:52.938Z,94557.66
2019-05-10T09:11:23.136Z,94572.36
2019-05-10T09:13:57.605Z,94566.07
2019-05-10T09:16:29.120Z,94566.07
2019-05-10T09:19:02.408Z,94569.00
2019-05-10T09:21:32.998Z,94561.27
2019-05-10T09:24:06.569Z,94566.47
2019-05-10T09:26:37.282Z,94566.97
2019-05-10T09:29:08.548Z,94565.02
2019-05-10T09:31:44.903Z,94568.91
2019-05-10T09:34:12.341Z,94563.45
2019-05-10T09:36:46.873Z,94564.23
2019-05-10T09:39:21.465Z,94563.02
2019-05-10T09:41:49.275Z,94567.56
2019-05-10T09:44:22.771Z,94574.27
2019-05-10T09:46:53.361Z,94565.02
2019-05-10T09:49:24.527Z,94587.81
2019-05-10T09:51:55.773Z,94562.68
2019-05-10T09:54:29.605Z,94571.38
2019-05-10T09:56:59.543Z,94572.58
2019-05-10T09:59:30.450Z,94565.56
2019-05-10T10:02:05.081Z,94571.12
2019-05-10T10:04:34.371Z,94575.60
2019-05-10T10:07:05.178Z,94571.33
2019-05-10T10:09:42.398Z,94572.27
2019-05-10T10:12:08.737Z,94572.47
2019-05-10T10:14:43.243Z,94563.19
2019-05-10T10:17:12.590Z,94570.42
2019-05-10T10:19:43.431Z,94572.13
2019-05-10T10:22:14.697Z,94573.13
2019-05-10T10:24:48.905Z,94577.02
2019-05-10T10:27:18.760Z,94581.15
2019-05-10T10:29:49.797Z,94588.45
2019-05-10T10:32:24.649Z,94583.13
2019-05-10T10:34:57.613Z,94583.13
2019-05-10T10:37:31.210Z,94590.92
2019-05-10T10:40:05.352Z,94588.17
2019-05-10T10:42:34.588Z,94595.17
2019-05-10T10:45:07.370Z,94596.87
2019-05-10T10:47:38.678Z,94589.25
2019-05-10T10:50:13.464Z,94607.00
2019-05-10T10:52:43.757Z,94603.68
2019-05-10T10:55:14.856Z,94603.36
2019-05-10T10:57:48.030Z,94614.06
2019-05-10T11:00:24.317Z,94626.87
2019-05-10T11:02:55.273Z,94622.20
2019-05-10T11:05:26.356Z,94622.52
2019-05-10T11:07:57.347Z,94617.44
2019-05-10T11:10:32.131Z,94626.13
2019-05-10T11:13:11.871Z,94622.84
2019-05-10T11:15:36.620Z,94625.90
2019-05-10T11:18:07.666Z,94620.82
2019-05-10T11:20:41.894Z,94618.09
2019-05-10T11:23:11.541Z,94603.80
2019-05-10T11:25:50.412Z,94595.87
2019-05-10T11:28:16.374Z,94595.87
2019-05-10T11:30:50.973Z,94601.54
2019-05-10T11:33:29.088Z,94599.89
2019-05-10T11:35:57.622Z,94585.63
2019-05-10T11:38:27.704Z,94594.44
2019-05-10T11:40:58.527Z,94584.98
2019-05-10T11:43:31.193Z,94589.94
2019-05-10T11:46:01.927Z,94596.95
2019-05-10T11:48:37.263Z,94586.20
2019-05-10T11:51:11.270Z,94582.63
2019-05-10T11:53:41.203Z,94579.92
2019-05-10T11:58:50.448Z,94577.16
2019-05-10T11:59:03.906Z,94577.16
2019-05-10T12:01:19.431Z,94591.16
2019-05-10T12:03:49.853Z,94599.05
2019-05-10T12:06:22.146Z,94596.09
2019-05-10T12:11:33.218Z,94596.81
2019-05-10T12:14:02.140Z,94592.35
2019-05-10T12:16:33.410Z,94593.36
2019-05-10T12:19:15.645Z,94595.44
2019-05-10T12:21:37.385Z,94593.95
2019-05-10T12:24:26.063Z,94587.61
2019-05-10T12:26:50.396Z,94608.06
2019-05-10T12:27:12.851Z,94599.38
2019-05-10T12:29:17.230Z,94583.13
2019-05-10T12:31:47.505Z,94596.55
2019-05-10T12:34:20.715Z,94595.60
2019-05-10T12:36:52.141Z,94595.60
2019-05-10T12:39:23.077Z,94595.30
2019-05-10T12:41:54.006Z,94588.63
2019-05-10T12:44:24.945Z,94590.37
2019-05-10T12:46:55.749Z,94588.45
2019-05-10T12:49:26.868Z,94596.27
2019-05-10T12:51:57.834Z,94592.30
2019-05-10T12:54:29.006Z,94597.36
2019-05-10T12:57:00.044Z,94591.29
2019-05-10T12:59:34.889Z,94586.14
2019-05-10T13:02:09.919Z,94586.41
2019-05-10T13:04:40.591Z,94596.02
2019-05-10T13:07:09.333Z,94598.04
2019-05-10T13:09:41.116Z,94600.77
2019-05-10T13:12:12.192Z,94600.98
2019-05-10T13:14:46.501Z,94599.52
2019-05-10T13:17:17.141Z,94597.17
2019-05-10T13:19:52.818Z,94597.17
2019-05-10T13:22:21.165Z,94590.35
2019-05-10T13:24:52.497Z,94593.80
2019-05-10T13:27:23.677Z,94583.14
2019-05-10T13:29:54.571Z,94593.59
2019-05-10T13:32:25.337Z,94587.52
2019-05-10T13:34:56.472Z,94592.91
2019-05-10T13:37:27.518Z,94598.39
2019-05-10T13:40:05.081Z,94600.30
2019-05-10T13:42:36.472Z,94600.55
2019-05-10T13:45:04.838Z,94605.95
2019-05-10T13:47:35.899Z,94597.66
2019-05-10T13:50:07.152Z,94604.46
2019-05-10T13:52:40.982Z,94610.53
2019-05-10T13:55:11.254Z,94601.33
2019-05-10T13:57:42.158Z,94604.87
2019-05-10T14:00:13.647Z,94606.09
2019-05-10T14:02:44.707Z,94609.22
2019-05-10T14:05:17.706Z,94610.66
2019-05-10T14:07:52.308Z,94612.57
2019-05-10T14:10:23.218Z,94611.16
2019-05-10T14:12:56.205Z,94612.45
2019-05-10T14:15:27.370Z,94610.23
2019-05-10T14:17:58.378Z,94601.91
2019-05-10T14:20:29.324Z,94608.20
2019-05-10T14:23:00.237Z,94603.36
2019-05-10T14:25:36.112Z,94606.38
2019-05-10T14:28:09.806Z,94601.73
2019-05-10T14:30:37.074Z,94601.73
2019-05-10T14:33:13.976Z,94611.34
2019-05-10T14:35:41.187Z,94604.77
2019-05-10T14:38:13.080Z,94604.77
2019-05-10T14:40:44.421Z,94602.66
2019-05-10T14:43:15.556Z,94610.86
2019-05-10T14:45:46.464Z,94610.05
2019-05-10T14:48:27.656Z,94611.58
2019-05-10T14:50:50.363Z,94607.81
2019-05-10T14:53:25.568Z,94618.86
2019-05-10T14:55:54.201Z,94606.97
2019-05-10T14:58:25.377Z,94613.67
2019-05-10T15:00:56.270Z,94620.77
2019-05-10T15:03:27.057Z,94615.38
2019-05-10T15:06:01.594Z,94622.80
2019-05-10T15:08:30.583Z,94612.47
2019-05-10T15:11:01.851Z,94596.95
2019-05-10T15:13:35.245Z,94612.66
2019-05-10T15:16:09.638Z,94611.77
2019-05-10T15:18:38.051Z,94605.90
2019-05-10T15:21:09.230Z,94601.83
2019-05-10T15:23:40.303Z,94602.22
2019-05-10T15:26:12.224Z,94605.36
2019-05-10T15:28:43.421Z,94605.36
2019-05-10T15:31:14.540Z,94599.20
2019-05-10T15:33:45.627Z,94600.30
2019-05-10T15:36:16.659Z,94600.81
2019-05-10T15:38:51.949Z,94598.90
2019-05-10T15:41:22.500Z,94598.90
2019-05-10T15:43:53.848Z,94586.83
2019-05-10T15:46:35.354Z,94589.27
2019-05-10T15:48:58.802Z,94591.20
2019-05-10T15:51:36.360Z,94594.53
2019-05-10T15:54:04.922Z,94592.48
2019-05-10T15:56:40.738Z,94591.77
2019-05-10T15:59:12.919Z,94591.77
2019-05-10T16:01:45.398Z,94595.55
2019-05-10T16:04:14.945Z,94597.23
2019-05-10T16:06:47.082Z,94588.61
2019-05-10T16:09:19.348Z,94587.72
2019-05-10T16:11:55.569Z,94592.70
2019-05-10T16:14:23.429Z,94591.25
2019-05-10T16:16:55.429Z,94589.00
2019-05-10T16:19:26.639Z,94600.93
2019-05-10T16:21:58.259Z,94601.45
2019-05-10T16:24:29.132Z,94601.52
2019-05-10T16:27:01.840Z,94597.56
2019-05-10T16:29:40.180Z,94602.36
2019-05-10T16:32:06.029Z,94607.77
2019-05-10T16:34:36.834Z,94601.50
2019-05-10T16:37:07.841Z,94603.37
2019-05-10T16:39:38.888Z,94606.43
2019-05-10T16:42:09.999Z,94605.34
2019-05-10T16:44:41.126Z,94609.17
2019-05-10T16:47:12.138Z,94611.81
2019-05-10T16:49:47.619Z,94615.23
2019-05-10T16:52:19.535Z,94613.17
2019-05-10T16:54:48.561Z,94620.53
2019-05-10T16:57:19.900Z,94614.74
2019-05-10T16:59:50.991Z,94618.16
2019-05-10T17:02:22.064Z,94621.53
2019-05-10T17:04:53.067Z,94623.28
2019-05-10T17:07:24.352Z,94627.42
2019-05-10T17:09:56.324Z,94628.02
2019-05-10T17:12:28.982Z,94638.64
2019-05-10T17:15:02.783Z,94638.64
2019-05-10T17:17:37.046Z,94640.88
2019-05-10T17:20:07.347Z,94640.88
2019-05-10T17:22:38.218Z,94643.34
2019-05-10T17:25:10.306Z,94641.39
2019-05-10T17:27:41.260Z,94646.64
2019-05-10T17:30:12.362Z,94647.84
2019-05-10T17:32:43.231Z,94651.33
2019-05-10T17:35:14.586Z,94661.02
2019-05-10T17:37:45.429Z,94666.22
2019-05-10T17:40:16.945Z,94659.66
2019-05-10T17:42:51.241Z,94668.23
2019-05-10T17:45:20.878Z,94672.02
2019-05-10T17:47:51.717Z,94672.45
2019-05-10T17:50:22.631Z,94671.69
2019-05-10T17:52:53.848Z,94673.50
2019-05-10T17:55:25.558Z,94673.50
2019-05-10T17:57:56.728Z,94675.58
2019-05-10T18:00:27.608Z,94677.41
2019-05-10T18:02:58.717Z,94677.41
2019-05-10T18:05:29.955Z,94680.37
2019-05-10T18:08:00.869Z,94686.78
2019-05-10T18:10:32.222Z,94686.78
2019-05-10T18:13:05.070Z,94692.91
2019-05-10T18:15:35.848Z,94694.49
2019-05-10T18:18:07.086Z,94690.22
2019-05-10T18:20:42.007Z,94695.88
2019-05-10T18:23:10.530Z,94691.68
2019-05-10T18:25:41.645Z,94700.77
2019-05-10T18:28:12.606Z,94703.44
2019-05-10T18:30:43.645Z,94707.56
2019-05-10T18:33:14.849Z,94705.06
2019-05-10T18:35:52.713Z,94709.80
2019-05-10T18:38:20.519Z,94716.05
2019-05-10T18:40:51.515Z,94722.95
2019-05-10T18:43:22.579Z,94728.69
2019-05-10T18:45:53.387Z,94728.23
2019-05-10T18:48:24.356Z,94737.77
2019-05-10T18:50:55.328Z,94736.68
2019-05-10T18:53:26.161Z,94738.68
2019-05-10T18:55:57.064Z,94734.75
2019-05-10T18:58:29.021Z,94737.33
2019-05-10T19:01:02.395Z,94737.33
2019-05-10T19:03:35.371Z,94741.58
2019-05-10T19:06:11.002Z,94742.66
2019-05-10T19:08:39.073Z,94744.16
2019-05-10T19:11:09.936Z,94751.84
2019-05-10T19:13:48.200Z,94752.95
2019-05-10T19:16:13.340Z,94757.00
2019-05-10T19:18:44.175Z,94761.51
2019-05-10T19:21:15.152Z,94758.44
2019-05-10T19:23:45.957Z,94761.16
2019-05-10T19:26:17.674Z,94757.37
2019-05-10T19:28:48.567Z,94754.64
2019-05-10T19:31:19.467Z,94762.72
2019-05-10T19:33:51.254Z,94766.80
2019-05-10T19:36:22.159Z,94762.19
2019-05-10T19:38:52.952Z,94764.25
2019-05-10T19:41:25.698Z,94764.09
2019-05-10T19:44:02.669Z,94764.75
2019-05-10T19:46:29.979Z,94764.22
2019-05-10T19:49:02.010Z,94766.77
2019-05-10T19:51:33.225Z,94765.62
2019-05-10T19:54:04.261Z,94769.92
2019-05-10T19:56:37.072Z,94768.92
2019-05-10T19:59:11.662Z,94767.49
2019-05-10T20:01:40.502Z,94767.65
2019-05-10T20:04:11.899Z,94766.72
2019-05-10T20:06:43.081Z,94768.30
2019-05-10T20:09:14.171Z,94770.92
2019-05-10T20:11:45.158Z,94772.58
2019-05-10T20:14:16.244Z,94773.11
2019-05-10T20:16:52.608Z,94778.59
2019-05-10T20:19:20.840Z,94774.73
2019-05-10T20:21:51.919Z,94775.84
2019-05-10T20:24:23.065Z,94775.18
2019-05-10T20:26:54.097Z,94772.03
2019-05-10T20:29:25.004Z,94777.91
2019-05-10T20:31:56.040Z,94781.83
2019-05-10T20:34:26.850Z,94777.59
2019-05-10T20:36:57.881Z,94781.48
2019-05-10T20:39:29.142Z,94787.78
2019-05-10T20:42:00.203Z,94785.38
2019-05-10T20:44:31.167Z,94788.33
2019-05-10T20:47:02.384Z,94788.41
2019-05-10T20:49:33.327Z,94790.44
2019-05-10T20:52:04.212Z,94795.20
2019-05-10T20:54:35.332Z,94800.94
2019-05-10T20:57:06.619Z,94802.59
2019-05-10T20:59:37.525Z,94809.66
2019-05-10T21:02:08.679Z,94808.03
2019-05-10T21:04:39.807Z,94811.51
2019-05-10T21:07:10.921Z,94806.58
2019-05-10T21:09:42.032Z,94810.65
2019-05-10T21:12:12.968Z,94807.88
2019-05-10T21:14:44.576Z,94814.52
2019-05-10T21:17:15.444Z,94808.18
2019-05-10T21:19:46.452Z,94822.23
2019-05-10T21:22:17.398Z,94825.75
2019-05-10T21:24:48.177Z,94831.34
2019-05-10T21:27:19.183Z,94826.95
2019-05-10T21:29:50.024Z,94825.72
2019-05-10T21:32:20.832Z,94826.19
2019-05-10T21:34:52.740Z,94830.70
2019-05-10T21:37:23.855Z,94830.48
2019-05-10T21:39:54.723Z,94829.48
2019-05-10T21:42:25.788Z,94837.93
2019-05-10T21:44:56.632Z,94834.05
2019-05-10T21:47:27.622Z,94838.76
2019-05-10T21:49:58.608Z,94839.09
2019-05-10T21:52:29.678Z,94841.06
2019-05-10T21:55:00.521Z,94836.88
2019-05-10T21:57:31.378Z,94839.27
2019-05-10T22:00:02.214Z,94839.55
2019-05-10T22:02:34.804Z,94845.42
2019-05-10T22:05:06.803Z,94843.14
2019-05-10T22:07:38.039Z,94841.84
2019-05-10T22:10:09.239Z,94834.41
2019-05-10T22:12:40.163Z,94842.75
2019-05-10T22:15:11.198Z,94830.38
2019-05-10T22:17:42.473Z,94841.48
2019-05-10T22:20:13.535Z,94835.50
2019-05-10T22:22:45.624Z,94836.59
2019-05-10T22:25:16.850Z,94843.25
2019-05-10T22:27:48.012Z,94842.78
2019-05-10T22:30:19.220Z,94846.94
2019-05-10T22:32:50.373Z,94841.28
2019-05-10T22:35:21.423Z,94844.19
2019-05-10T22:37:52.593Z,94846.34
2019-05-10T22:40:23.469Z,94849.95
2019-05-10T22:42:54.217Z,94845.22
2019-05-10T22:45:25.287Z,94859.42
2019-05-10T22:47:56.573Z,94856.17
2019-05-10T22:50:27.785Z,94853.25
2019-05-10T22:52:59.035Z,94863.16
2019-05-10T22:55:30.152Z,94861.20
2019-05-10T22:58:02.291Z,94860.55
2019-05-10T23:00:33.186Z,94861.41
2019-05-10T23:03:04.407Z,94856.51
2019-05-10T23:05:35.451Z,94862.12
2019-05-10T23:08:06.834Z,94863.62
2019-05-10T23:10:38.042Z,94860.98
2019-05-10T23:13:09.183Z,94867.02
2019-05-10T23:15:41.085Z,94863.92
2019-05-10T23:18:11.976Z,94858.41
2019-05-10T23:20:43.242Z,94858.08
2019-05-10T23:23:14.314Z,94858.92
2019-05-10T23:25:45.607Z,94859.12
2019-05-10T23:28:16.739Z,94862.39
2019-05-10T23:30:47.944Z,94865.84
2019-05-10T23:33:19.617Z,94867.01
2019-05-10T23:35:51.169Z,94861.46
2019-05-10T23:38:22.559Z,94863.22
2019-05-10T23:40:54.080Z,94864.88
2019-05-10T23:43:25.628Z,94866.02
2019-05-10T23:45:57.081Z,94860.78
2019-05-10T23:48:28.803Z,94866.33
2019-05-10T23:51:00.063Z,94862.04
2019-05-10T23:53:31.366Z,94856.19
2019-05-10T23:56:03.779Z,94870.52
2019-05-10T23:58:35.223Z,94869.03
